createdAt,value
2023-09-06T00:01:25.880Z,3.42
2023-09-06T00:04:28.418Z,3.43
2023-09-06T00:07:30.870Z,3.33
2023-09-06T00:10:32.713Z,3.63
2023-09-06T00:13:35.784Z,3.40
2023-09-06T00:16:37.737Z,3.30
2023-09-06T00:19:39.519Z,3.67
2023-09-06T00:22:41.553Z,3.47
2023-09-06T00:25:44.392Z,3.88
2023-09-06T00:28:47.076Z,3.67
2023-09-06T00:31:49.107Z,3.20
2023-09-06T00:34:51.570Z,3.42
2023-09-06T00:37:54.599Z,4.07
2023-09-06T00:40:56.521Z,3.20
2023-09-06T00:43:58.486Z,3.70
2023-09-06T00:47:01.268Z,3.13
2023-09-06T00:50:03.873Z,3.60
2023-09-06T00:53:10.203Z,3.30
2023-09-06T00:56:12.474Z,2.80
2023-09-06T00:59:17.209Z,3.15
2023-09-06T01:02:19.271Z,3.40
2023-09-06T01:05:22.104Z,3.97
2023-09-06T01:08:30.259Z,3.20
2023-09-06T01:11:33.697Z,3.35
2023-09-06T01:14:37.931Z,3.30
2023-09-06T01:17:43.113Z,3.42
2023-09-06T01:20:54.103Z,2.92
2023-09-06T01:23:57.175Z,3.10
2023-09-06T01:26:59.730Z,3.08
2023-09-06T01:30:01.855Z,3.33
2023-09-06T01:33:04.446Z,3.60
2023-09-06T01:36:06.706Z,3.50
2023-09-06T01:39:09.589Z,3.22
2023-09-06T01:42:11.460Z,3.03
2023-09-06T01:45:18.360Z,3.10
2023-09-06T01:48:20.617Z,2.65
2023-09-06T01:51:23.821Z,2.70
2023-09-06T01:54:25.685Z,3.30
2023-09-06T01:57:27.514Z,3.08
2023-09-06T02:00:29.554Z,3.63
2023-09-06T02:03:34.635Z,3.30
2023-09-06T02:06:37.156Z,3.30
2023-09-06T02:09:39.093Z,3.43
2023-09-06T02:12:40.997Z,3.22
2023-09-06T02:15:42.986Z,3.33
2023-09-06T02:18:45.085Z,3.17
2023-09-06T02:21:46.994Z,3.35
2023-09-06T02:24:49.072Z,3.40
2023-09-06T02:27:51.441Z,3.13
2023-09-06T02:30:53.274Z,2.97
2023-09-06T02:33:56.567Z,3.35
2023-09-06T02:40:00.285Z,3.17
2023-09-06T02:43:03.617Z,3.58
2023-09-06T02:49:13.548Z,3.47
2023-09-06T02:52:22.192Z,3.78
2023-09-06T02:55:25.304Z,4.43
2023-09-06T02:58:28.071Z,4.10
2023-09-06T03:01:31.806Z,3.35
2023-09-06T03:04:38.941Z,3.67
2023-09-06T03:07:41.648Z,4.00
2023-09-06T03:10:46.904Z,4.10
2023-09-06T03:13:48.885Z,3.95
2023-09-06T03:16:54.743Z,4.03
2023-09-06T03:20:00.774Z,3.47
2023-09-06T03:23:18.430Z,4.18
2023-09-06T03:26:24.053Z,4.15
2023-09-06T03:29:28.669Z,3.97
2023-09-06T03:32:30.888Z,4.15
2023-09-06T03:35:32.988Z,4.72
2023-09-06T03:38:36.228Z,5.15
2023-09-06T03:41:38.257Z,4.28
2023-09-06T03:44:40.473Z,3.95
2023-09-06T03:47:43.711Z,4.63
2023-09-06T03:53:49.379Z,4.60
2023-09-06T03:56:51.641Z,4.85
2023-09-06T03:59:53.461Z,5.05
2023-09-06T04:02:55.553Z,4.50
2023-09-06T04:05:59.005Z,4.28
2023-09-06T04:12:03.139Z,3.88
2023-09-06T04:15:07.747Z,3.55
2023-09-06T04:18:11.904Z,3.75
2023-09-06T04:21:14.343Z,3.95
2023-09-06T04:24:16.353Z,3.70
2023-09-06T04:27:18.974Z,4.13
2023-09-06T04:30:20.869Z,3.33
2023-09-06T04:33:22.640Z,3.40
2023-09-06T04:36:24.622Z,3.78
2023-09-06T04:39:29.891Z,3.60
2023-09-06T04:42:33.604Z,3.92
2023-09-06T04:45:38.671Z,3.88
2023-09-06T04:48:40.656Z,3.97
2023-09-06T04:51:43.081Z,4.25
2023-09-06T04:54:45.247Z,3.95
2023-09-06T04:57:55.093Z,3.97
2023-09-06T05:00:57.638Z,3.95
2023-09-06T05:03:59.918Z,4.10
2023-09-06T05:07:02.537Z,3.92
2023-09-06T05:10:05.940Z,4.10
2023-09-06T05:16:11.901Z,4.03
2023-09-06T05:19:13.718Z,4.22
2023-09-06T05:22:15.544Z,4.00
2023-09-06T05:25:17.658Z,4.50
2023-09-06T05:28:19.983Z,4.68
2023-09-06T05:31:21.967Z,4.95
2023-09-06T05:34:30.915Z,4.57
2023-09-06T05:37:33.102Z,5.40
2023-09-06T05:40:36.757Z,4.88
2023-09-06T05:43:39.528Z,4.72
2023-09-06T05:46:41.411Z,4.65
2023-09-06T05:49:43.998Z,4.15
2023-09-06T05:52:46.222Z,5.93
2023-09-06T05:55:48.293Z,5.07
2023-09-06T05:58:50.172Z,5.53
2023-09-06T06:01:59.189Z,4.68
2023-09-06T06:05:01.939Z,4.63
2023-09-06T06:08:04.567Z,5.13
2023-09-06T06:11:06.598Z,5.57
2023-09-06T06:14:11.213Z,5.57
2023-09-06T06:17:14.091Z,5.65
2023-09-06T06:20:22.778Z,5.20
2023-09-06T06:23:31.050Z,5.20
2023-09-06T06:26:32.938Z,5.60
2023-09-06T06:29:34.987Z,6.13
2023-09-06T06:32:37.209Z,6.13
2023-09-06T06:35:39.538Z,5.72
2023-09-06T06:38:41.952Z,5.57
2023-09-06T06:41:43.942Z,5.22
2023-09-06T06:44:47.564Z,5.90
2023-09-06T06:47:49.696Z,5.60
2023-09-06T06:50:51.550Z,5.13
2023-09-06T06:53:53.446Z,4.93
2023-09-06T06:56:55.223Z,4.95
2023-09-06T06:59:57.491Z,4.68
2023-09-06T07:02:59.654Z,4.50
2023-09-06T07:06:01.591Z,5.18
2023-09-06T07:09:05.046Z,5.13
2023-09-06T07:12:07.340Z,5.95
2023-09-06T07:15:09.613Z,5.60
2023-09-06T07:18:14.056Z,7.20
2023-09-06T07:21:17.242Z,7.07
2023-09-06T07:24:19.014Z,6.80
2023-09-06T07:27:22.329Z,5.20
2023-09-06T07:33:25.963Z,6.45
2023-09-06T07:36:27.903Z,5.20
2023-09-06T07:39:30.131Z,5.53
2023-09-06T07:42:32.113Z,5.43
2023-09-06T07:45:34.094Z,5.35
2023-09-06T07:48:37.624Z,5.18
2023-09-06T07:51:39.950Z,5.50
2023-09-06T07:54:42.321Z,5.72
2023-09-06T07:57:44.155Z,5.40
2023-09-06T08:00:47.845Z,4.38
2023-09-06T08:03:50.234Z,4.43
2023-09-06T08:06:53.390Z,4.07
2023-09-06T08:09:55.592Z,4.05
2023-09-06T08:12:58.065Z,4.10
2023-09-06T08:16:00.302Z,5.07
2023-09-06T08:19:02.392Z,5.85
2023-09-06T08:22:04.451Z,5.57
2023-09-06T08:25:06.765Z,5.50
2023-09-06T08:28:09.016Z,5.22
2023-09-06T08:31:11.429Z,5.10
2023-09-06T08:34:14.058Z,5.83
2023-09-06T08:37:15.974Z,7.63
2023-09-06T08:40:19.917Z,8.80
2023-09-06T08:43:24.380Z,9.23
2023-09-06T08:46:30.932Z,6.93
2023-09-06T08:49:33.226Z,5.82
2023-09-06T08:52:35.980Z,4.80
2023-09-06T08:55:38.367Z,4.65
2023-09-06T08:58:40.520Z,4.70
2023-09-06T09:01:42.725Z,3.92
2023-09-06T09:04:44.813Z,4.30
2023-09-06T09:07:47.797Z,4.10
2023-09-06T09:11:15.925Z,3.30
2023-09-06T09:14:25.717Z,2.97
2023-09-06T09:17:29.259Z,3.10
2023-09-06T09:20:45.139Z,2.67
2023-09-06T09:23:56.542Z,2.90
2023-09-06T09:26:58.460Z,2.97
2023-09-06T09:30:04.460Z,2.90
2023-09-06T09:33:06.472Z,2.67
2023-09-06T09:36:09.156Z,2.33
2023-09-06T09:39:15.323Z,2.22
2023-09-06T09:42:17.293Z,2.97
2023-09-06T09:45:19.369Z,2.45
2023-09-06T09:48:27.336Z,2.40
2023-09-06T09:51:30.469Z,2.80
2023-09-06T09:54:34.980Z,2.92
2023-09-06T09:57:41.847Z,1.98
2023-09-06T10:00:44.528Z,2.28
2023-09-06T10:03:50.318Z,2.97
2023-09-06T10:06:52.991Z,3.00
2023-09-06T10:09:56.463Z,2.80
2023-09-06T10:13:06.751Z,3.03
2023-09-06T10:16:09.419Z,3.08
2023-09-06T10:19:13.274Z,2.88
2023-09-06T10:22:18.986Z,2.55
2023-09-06T10:25:29.504Z,2.03
2023-09-06T10:28:37.702Z,2.60
2023-09-06T10:32:10.785Z,3.63
2023-09-06T10:35:57.763Z,4.03
2023-09-06T10:38:59.886Z,4.93
2023-09-06T10:42:38.713Z,4.82
2023-09-06T10:45:42.036Z,3.72
2023-09-06T10:49:44.818Z,3.50
2023-09-06T10:53:06.098Z,3.63
2023-09-06T10:56:28.640Z,3.45
2023-09-06T11:00:40.089Z,3.45
2023-09-06T11:03:52.285Z,4.15
2023-09-06T11:07:51.192Z,4.00
2023-09-06T11:10:59.076Z,3.70
2023-09-06T11:14:02.710Z,4.03
2023-09-06T11:17:04.686Z,3.67
2023-09-06T11:20:12.820Z,3.75
2023-09-06T11:23:16.294Z,4.05
2023-09-06T11:26:27.949Z,3.33
2023-09-06T11:29:30.473Z,3.08
2023-09-06T11:32:33.811Z,4.10
2023-09-06T11:35:54.709Z,3.25
2023-09-06T11:39:07.812Z,3.47
2023-09-06T11:42:17.358Z,3.25
2023-09-06T11:45:23.247Z,3.75
2023-09-06T11:48:34.973Z,3.33
2023-09-06T11:51:50.599Z,3.42
2023-09-06T11:54:53.742Z,3.03
2023-09-06T12:01:12.426Z,3.03
2023-09-06T12:07:43.855Z,3.08
2023-09-06T12:14:58.593Z,2.70
2023-09-06T12:18:40.099Z,2.72
2023-09-06T12:21:50.652Z,3.65
2023-09-06T12:24:53.315Z,2.70
2023-09-06T12:28:04.900Z,2.80
2023-09-06T12:34:33.647Z,2.47
2023-09-06T12:41:28.121Z,2.33
2023-09-06T12:44:42.472Z,2.50
2023-09-06T12:47:45.166Z,2.63
2023-09-06T12:50:47.143Z,3.13
2023-09-06T12:53:58.357Z,3.17
2023-09-06T12:57:04.783Z,3.20
2023-09-06T13:00:14.746Z,3.47
2023-09-06T13:03:16.806Z,3.20
2023-09-06T13:06:18.695Z,3.13
2023-09-06T13:09:20.807Z,3.10
2023-09-06T13:12:22.950Z,3.38
2023-09-06T13:15:24.885Z,3.00
2023-09-06T13:18:26.873Z,3.38
2023-09-06T13:21:30.806Z,3.22
2023-09-06T13:24:34.626Z,3.17
2023-09-06T13:27:39.541Z,3.40
2023-09-06T13:30:41.426Z,3.42
2023-09-06T13:33:44.085Z,3.30
2023-09-06T13:36:46.095Z,3.00
2023-09-06T13:39:47.995Z,3.33
2023-09-06T13:42:49.881Z,3.33
2023-09-06T13:45:51.731Z,3.30
2023-09-06T13:49:03.395Z,3.10
2023-09-06T13:52:05.992Z,3.60
2023-09-06T13:55:08.417Z,3.25
2023-09-06T13:58:11.718Z,3.42
2023-09-06T14:01:16.534Z,3.20
2023-09-06T14:04:19.115Z,3.28
2023-09-06T14:07:21.176Z,3.78
2023-09-06T14:10:23.775Z,3.38
2023-09-06T14:13:26.874Z,3.08
2023-09-06T14:16:29.069Z,3.17
2023-09-06T14:19:33.003Z,3.50
2023-09-06T14:22:34.886Z,3.28
2023-09-06T14:25:37.120Z,3.08
2023-09-06T14:28:39.077Z,3.30
2023-09-06T14:31:41.925Z,3.40
2023-09-06T14:34:44.383Z,3.35
2023-09-06T14:37:46.316Z,3.43
2023-09-06T14:40:49.470Z,3.25
2023-09-06T14:46:55.124Z,2.88
2023-09-06T14:49:57.859Z,3.35
2023-09-06T14:53:00.764Z,3.35
2023-09-06T14:56:03.306Z,3.20
2023-09-06T14:59:06.106Z,3.17
2023-09-06T15:02:08.373Z,3.60
2023-09-06T15:05:10.580Z,3.33
2023-09-06T15:08:13.144Z,3.63
2023-09-06T15:11:15.025Z,3.25
2023-09-06T15:14:17.399Z,3.20
2023-09-06T15:17:23.020Z,3.40
2023-09-06T15:20:25.296Z,3.00
2023-09-06T15:23:28.888Z,3.10
2023-09-06T15:26:30.766Z,3.25
2023-09-06T15:29:32.641Z,3.00
2023-09-06T15:32:37.463Z,3.50
2023-09-06T15:35:39.613Z,3.67
2023-09-06T15:38:41.430Z,3.83
2023-09-06T15:41:43.280Z,3.90
2023-09-06T15:44:45.179Z,4.00
2023-09-06T15:47:55.042Z,3.47
2023-09-06T15:50:57.032Z,3.38
2023-09-06T15:53:58.914Z,3.47
2023-09-06T15:57:27.070Z,3.60
2023-09-06T16:00:34.890Z,3.20
2023-09-06T16:03:36.851Z,3.30
2023-09-06T16:06:39.496Z,3.30
2023-09-06T16:09:42.769Z,3.33
2023-09-06T16:12:50.269Z,3.10
2023-09-06T16:15:52.168Z,3.40
2023-09-06T16:18:54.041Z,3.33
2023-09-06T16:21:56.071Z,3.65
2023-09-06T16:24:58.082Z,4.20
2023-09-06T16:28:00.398Z,4.25
2023-09-06T16:31:02.310Z,4.13
2023-09-06T16:34:05.407Z,3.95
2023-09-06T16:37:07.447Z,4.03
2023-09-06T16:40:12.552Z,3.47
2023-09-06T16:43:16.373Z,4.63
2023-09-06T16:46:18.282Z,3.50
2023-09-06T16:49:20.707Z,3.25
2023-09-06T16:52:23.139Z,3.30
2023-09-06T16:55:35.570Z,3.10
2023-09-06T16:58:38.653Z,3.30
2023-09-06T17:01:40.526Z,3.00
2023-09-06T17:04:42.572Z,3.00
2023-09-06T17:07:44.388Z,2.97
2023-09-06T17:10:46.999Z,3.40
2023-09-06T17:13:49.547Z,2.90
2023-09-06T17:16:54.521Z,3.13
2023-09-06T17:19:56.463Z,3.15
2023-09-06T17:22:59.279Z,3.15
2023-09-06T17:26:01.352Z,3.00
2023-09-06T17:29:06.923Z,3.38
2023-09-06T17:32:09.483Z,3.78
2023-09-06T17:35:12.270Z,3.63
2023-09-06T17:38:23.966Z,3.70
2023-09-06T17:41:25.833Z,3.60
2023-09-06T17:44:30.291Z,3.17
2023-09-06T17:47:40.389Z,3.50
2023-09-06T17:50:51.988Z,3.35
2023-09-06T17:53:53.949Z,3.55
2023-09-06T17:56:57.174Z,4.05
2023-09-06T18:03:15.863Z,3.78
2023-09-06T18:06:25.268Z,3.70
2023-09-06T18:09:27.523Z,4.00
2023-09-06T18:12:30.158Z,3.33
2023-09-06T18:15:35.000Z,3.90
2023-09-06T18:18:38.135Z,3.90
2023-09-06T18:24:42.274Z,4.22
2023-09-06T18:27:44.645Z,4.23
2023-09-06T18:30:46.561Z,6.07
2023-09-06T18:33:48.482Z,7.45
2023-09-06T18:36:50.646Z,7.07
2023-09-06T18:39:53.156Z,13.68
2023-09-06T18:42:56.328Z,11.77
2023-09-06T18:49:08.203Z,7.07
2023-09-06T18:52:10.073Z,6.32
2023-09-06T18:55:13.481Z,6.40
2023-09-06T18:58:18.525Z,4.47
2023-09-06T19:01:21.676Z,5.82
2023-09-06T19:04:23.804Z,9.30
2023-09-06T19:07:28.974Z,8.57
2023-09-06T19:10:31.505Z,7.35
2023-09-06T19:13:33.440Z,6.15
2023-09-06T19:16:35.363Z,5.82
2023-09-06T19:19:39.735Z,6.38
2023-09-06T19:22:44.846Z,7.13
2023-09-06T19:25:53.772Z,6.50
2023-09-06T19:28:55.885Z,16.92
2023-09-06T19:31:57.744Z,8.80
2023-09-06T19:34:59.529Z,6.88
2023-09-06T19:38:01.790Z,6.35
2023-09-06T19:41:05.549Z,5.97
2023-09-06T19:44:09.312Z,5.40
2023-09-06T19:47:18.095Z,5.72
2023-09-06T19:50:20.150Z,5.82
2023-09-06T19:53:29.633Z,5.93
2023-09-06T19:56:32.433Z,5.22
2023-09-06T19:59:34.703Z,5.40
2023-09-06T20:02:36.885Z,5.75
2023-09-06T20:05:39.613Z,6.33
2023-09-06T20:08:41.764Z,7.00
2023-09-06T20:11:47.716Z,7.53
2023-09-06T20:14:49.795Z,6.72
2023-09-06T20:17:52.347Z,6.30
2023-09-06T20:21:09.439Z,6.43
2023-09-06T20:24:11.838Z,7.25
2023-09-06T20:27:13.799Z,8.43
2023-09-06T20:30:15.850Z,7.40
2023-09-06T20:33:17.728Z,7.22
2023-09-06T20:39:35.735Z,7.18
2023-09-06T20:42:37.860Z,6.68
2023-09-06T20:45:39.869Z,7.03
2023-09-06T20:48:45.797Z,6.38
2023-09-06T20:51:48.563Z,6.78
2023-09-06T20:54:50.713Z,7.05
2023-09-06T20:57:53.414Z,6.78
2023-09-06T21:00:56.544Z,7.20
2023-09-06T21:03:59.042Z,8.65
2023-09-06T21:07:01.473Z,6.30
2023-09-06T21:10:06.852Z,5.80
2023-09-06T21:13:08.655Z,5.70
2023-09-06T21:16:10.551Z,6.15
2023-09-06T21:19:13.097Z,5.90
2023-09-06T21:22:14.937Z,5.57
2023-09-06T21:25:28.434Z,6.07
2023-09-06T21:31:32.540Z,6.10
2023-09-06T21:34:34.918Z,6.15
2023-09-06T21:37:36.903Z,6.07
2023-09-06T21:40:45.952Z,6.45
2023-09-06T21:43:47.759Z,6.40
2023-09-06T21:46:49.626Z,7.10
2023-09-06T21:49:52.069Z,5.60
2023-09-06T21:52:54.850Z,5.83
2023-09-06T21:55:56.698Z,6.20
2023-09-06T21:59:00.477Z,5.88
2023-09-06T22:02:02.485Z,5.82
2023-09-06T22:05:04.939Z,5.63
2023-09-06T22:08:06.977Z,5.80
2023-09-06T22:11:08.860Z,6.18
2023-09-06T22:14:11.216Z,6.00
2023-09-06T22:17:13.474Z,5.80
2023-09-06T22:20:19.233Z,6.50
2023-09-06T22:23:21.428Z,6.20
2023-09-06T22:26:23.399Z,6.68
2023-09-06T22:29:25.302Z,6.20
2023-09-06T22:32:27.388Z,6.05
2023-09-06T22:35:32.573Z,6.60
2023-09-06T22:38:34.456Z,6.90
2023-09-06T22:41:36.466Z,6.68
2023-09-06T22:44:38.345Z,6.43
2023-09-06T22:47:40.314Z,6.53
2023-09-06T22:50:42.760Z,6.90
2023-09-06T22:53:44.785Z,6.03
2023-09-06T22:56:47.352Z,6.65
2023-09-06T22:59:49.263Z,7.05
2023-09-06T23:02:53.830Z,7.38
2023-09-06T23:05:55.767Z,7.07
2023-09-06T23:09:00.689Z,6.40
2023-09-06T23:12:05.484Z,6.65
2023-09-06T23:15:08.748Z,6.47
2023-09-06T23:18:12.429Z,6.53
2023-09-06T23:21:17.466Z,6.82
2023-09-06T23:24:20.086Z,6.93
2023-09-06T23:27:24.505Z,6.78
2023-09-06T23:30:31.136Z,7.05
2023-09-06T23:33:45.242Z,7.25
2023-09-06T23:36:47.601Z,7.50
2023-09-06T23:39:50.122Z,8.38
2023-09-06T23:42:54.808Z,7.63
2023-09-06T23:45:57.609Z,8.23
2023-09-06T23:49:00.107Z,8.02
2023-09-06T23:52:02.523Z,7.50
2023-09-06T23:55:08.892Z,8.17
2023-09-06T23:58:10.837Z,7.82
